sensor_id;sensor_type;location;lat;lon;timestamp;pressure;altitude;pressure_sealevel;temperature;humidity
66627;BME280;53498;50.422;14.912;2023-06-14T00:00:33;98881.84;;;11.89;98.95
66627;BME280;53498;50.422;14.912;2023-06-14T00:03:20;98887.91;;;11.91;99.96
66627;BME280;53498;50.422;14.912;2023-06-14T00:05:48;98883.59;;;11.84;99.54
66627;BME280;53498;50.422;14.912;2023-06-14T00:08:14;98887.25;;;11.63;98.92
66627;BME280;53498;50.422;14.912;2023-06-14T00:10:40;98882.97;;;11.51;99.14
66627;BME280;53498;50.422;14.912;2023-06-14T00:13:09;98881.03;;;11.77;100.00
66627;BME280;53498;50.422;14.912;2023-06-14T00:15:36;98876.69;;;11.78;100.00
66627;BME280;53498;50.422;14.912;2023-06-14T00:18:02;98880.22;;;11.72;100.00
66627;BME280;53498;50.422;14.912;2023-06-14T00:20:29;98875.06;;;11.66;100.00
66627;BME280;53498;50.422;14.912;2023-06-14T00:22:56;98874.31;;;11.47;100.00
66627;BME280;53498;50.422;14.912;2023-06-14T00:25:23;98871.69;;;11.53;100.00
66627;BME280;53498;50.422;14.912;2023-06-14T00:27:51;98881.38;;;11.31;100.00
66627;BME280;53498;50.422;14.912;2023-06-14T00:30:17;98870.88;;;11.42;100.00
66627;BME280;53498;50.422;14.912;2023-06-14T00:32:43;98870.03;;;11.39;100.00
66627;BME280;53498;50.422;14.912;2023-06-14T00:35:09;98883.09;;;11.32;100.00
66627;BME280;53498;50.422;14.912;2023-06-14T00:37:35;98867.44;;;11.35;100.00
66627;BME280;53498;50.422;14.912;2023-06-14T00:40:02;98874.38;;;11.37;100.00
66627;BME280;53498;50.422;14.912;2023-06-14T00:42:30;98874.34;;;11.44;100.00
66627;BME280;53498;50.422;14.912;2023-06-14T00:44:56;98877.81;;;11.45;100.00
66627;BME280;53498;50.422;14.912;2023-06-14T00:47:22;98876.19;;;11.28;100.00
66627;BME280;53498;50.422;14.912;2023-06-14T00:49:49;98882.31;;;11.20;100.00
66627;BME280;53498;50.422;14.912;2023-06-14T00:52:16;98881.41;;;11.25;100.00
66627;BME280;53498;50.422;14.912;2023-06-14T00:54:43;98877.97;;;11.17;100.00
66627;BME280;53498;50.422;14.912;2023-06-14T00:57:10;98880.47;;;11.31;100.00
66627;BME280;53498;50.422;14.912;2023-06-14T00:59:42;98885.72;;;11.29;100.00
66627;BME280;53498;50.422;14.912;2023-06-14T01:02:08;98882.19;;;11.37;100.00
66627;BME280;53498;50.422;14.912;2023-06-14T01:04:33;98887.44;;;11.30;100.00
66627;BME280;53498;50.422;14.912;2023-06-14T01:07:07;98881.47;;;11.10;100.00
66627;BME280;53498;50.422;14.912;2023-06-14T01:09:53;98874.53;;;11.06;100.00
66627;BME280;53498;50.422;14.912;2023-06-14T01:14:59;98884.00;;;11.24;100.00
66627;BME280;53498;50.422;14.912;2023-06-14T01:17:26;98880.59;;;11.13;100.00
66627;BME280;53498;50.422;14.912;2023-06-14T01:19:52;98891.84;;;11.19;100.00
66627;BME280;53498;50.422;14.912;2023-06-14T01:22:26;98887.53;;;11.14;100.00
66627;BME280;53498;50.422;14.912;2023-06-14T01:24:52;98891.88;;;11.11;100.00
66627;BME280;53498;50.422;14.912;2023-06-14T01:27:23;98894.47;;;11.19;100.00
66627;BME280;53498;50.422;14.912;2023-06-14T01:29:51;98895.34;;;11.14;100.00
66627;BME280;53498;50.422;14.912;2023-06-14T01:32:23;98892.69;;;11.23;100.00
66627;BME280;53498;50.422;14.912;2023-06-14T01:34:50;98898.75;;;11.23;100.00
66627;BME280;53498;50.422;14.912;2023-06-14T01:37:16;98901.38;;;11.20;100.00
66627;BME280;53498;50.422;14.912;2023-06-14T01:39:43;98898.78;;;11.20;100.00
66627;BME280;53498;50.422;14.912;2023-06-14T01:42:18;98897.91;;;11.20;100.00
66627;BME280;53498;50.422;14.912;2023-06-14T01:44:46;98903.91;;;11.31;100.00
66627;BME280;53498;50.422;14.912;2023-06-14T01:47:14;98903.97;;;11.26;100.00
66627;BME280;53498;50.422;14.912;2023-06-14T01:49:40;98898.72;;;11.28;99.58
66627;BME280;53498;50.422;14.912;2023-06-14T01:52:09;98899.59;;;11.27;100.00
66627;BME280;53498;50.422;14.912;2023-06-14T01:54:35;98904.81;;;11.27;100.00
66627;BME280;53498;50.422;14.912;2023-06-14T01:57:03;98903.13;;;11.18;99.53
66627;BME280;53498;50.422;14.912;2023-06-14T01:59:29;98907.47;;;11.22;100.00
66627;BME280;53498;50.422;14.912;2023-06-14T02:01:56;98904.00;;;11.14;100.00
66627;BME280;53498;50.422;14.912;2023-06-14T02:04:22;98898.81;;;11.14;100.00
66627;BME280;53498;50.422;14.912;2023-06-14T02:06:47;98900.50;;;11.18;100.00
66627;BME280;53498;50.422;14.912;2023-06-14T02:09:13;98894.47;;;11.16;100.00
66627;BME280;53498;50.422;14.912;2023-06-14T02:11:38;98897.06;;;11.19;100.00
66627;BME280;53498;50.422;14.912;2023-06-14T02:14:04;98904.00;;;11.20;100.00
66627;BME280;53498;50.422;14.912;2023-06-14T02:16:32;98905.75;;;11.09;100.00
66627;BME280;53498;50.422;14.912;2023-06-14T02:18:58;98898.84;;;11.08;100.00
66627;BME280;53498;50.422;14.912;2023-06-14T02:21:23;98901.34;;;11.22;100.00
66627;BME280;53498;50.422;14.912;2023-06-14T02:23:49;98903.16;;;11.14;100.00
66627;BME280;53498;50.422;14.912;2023-06-14T02:26:15;98898.00;;;11.04;98.38
66627;BME280;53498;50.422;14.912;2023-06-14T02:28:40;98888.50;;;10.89;98.12
66627;BME280;53498;50.422;14.912;2023-06-14T02:31:06;98897.16;;;10.96;98.27
66627;BME280;53498;50.422;14.912;2023-06-14T02:33:31;98897.13;;;11.07;100.00
66627;BME280;53498;50.422;14.912;2023-06-14T02:35:57;98909.25;;;11.13;99.28
66627;BME280;53498;50.422;14.912;2023-06-14T02:38:23;98909.25;;;11.08;100.00
66627;BME280;53498;50.422;14.912;2023-06-14T02:40:49;98911.03;;;10.97;100.00
66627;BME280;53498;50.422;14.912;2023-06-14T02:43:14;98908.41;;;11.00;100.00
66627;BME280;53498;50.422;14.912;2023-06-14T02:45:42;98908.38;;;11.06;100.00
66627;BME280;53498;50.422;14.912;2023-06-14T02:48:08;98904.06;;;11.02;99.84
66627;BME280;53498;50.422;14.912;2023-06-14T02:50:33;98905.75;;;11.09;98.86
66627;BME280;53498;50.422;14.912;2023-06-14T02:52:59;98899.69;;;11.11;97.70
66627;BME280;53498;50.422;14.912;2023-06-14T02:55:24;98907.53;;;11.04;100.00
66627;BME280;53498;50.422;14.912;2023-06-14T02:57:51;98904.06;;;11.05;99.98
66627;BME280;53498;50.422;14.912;2023-06-14T03:00:18;98907.63;;;10.85;100.00
66627;BME280;53498;50.422;14.912;2023-06-14T03:02:45;98906.75;;;10.80;100.00
66627;BME280;53498;50.422;14.912;2023-06-14T03:05:11;98910.22;;;10.78;100.00
66627;BME280;53498;50.422;14.912;2023-06-14T03:07:36;98910.22;;;10.78;100.00
66627;BME280;53498;50.422;14.912;2023-06-14T03:10:10;98920.59;;;10.87;100.00
66627;BME280;53498;50.422;14.912;2023-06-14T03:12:39;98914.56;;;10.80;100.00
66627;BME280;53498;50.422;14.912;2023-06-14T03:15:05;98914.59;;;10.76;100.00
66627;BME280;53498;50.422;14.912;2023-06-14T03:17:31;98911.09;;;10.77;100.00
66627;BME280;53498;50.422;14.912;2023-06-14T03:20:02;98916.31;;;10.84;100.00
66627;BME280;53498;50.422;14.912;2023-06-14T03:22:27;98924.16;;;10.72;100.00
66627;BME280;53498;50.422;14.912;2023-06-14T03:24:53;98917.19;;;10.74;98.29
66627;BME280;53498;50.422;14.912;2023-06-14T03:27:19;98919.72;;;10.93;100.00
66627;BME280;53498;50.422;14.912;2023-06-14T03:29:45;98919.69;;;11.02;98.59
66627;BME280;53498;50.422;14.912;2023-06-14T03:32:11;98923.16;;;10.99;99.14
66627;BME280;53498;50.422;14.912;2023-06-14T03:34:36;98917.06;;;11.09;98.85
66627;BME280;53498;50.422;14.912;2023-06-14T03:37:04;98924.03;;;11.00;97.91
66627;BME280;53498;50.422;14.912;2023-06-14T03:39:30;98922.25;;;11.13;99.96
66627;BME280;53498;50.422;14.912;2023-06-14T03:41:56;98927.47;;;11.16;97.62
66627;BME280;53498;50.422;14.912;2023-06-14T03:44:22;98935.28;;;11.11;97.36
66627;BME280;53498;50.422;14.912;2023-06-14T03:46:47;98934.41;;;11.10;98.08
66627;BME280;53498;50.422;14.912;2023-06-14T03:49:13;98936.97;;;11.15;98.67
66627;BME280;53498;50.422;14.912;2023-06-14T03:51:39;98927.41;;;11.22;97.08
66627;BME280;53498;50.422;14.912;2023-06-14T03:54:05;98931.78;;;11.12;96.32
66627;BME280;53498;50.422;14.912;2023-06-14T03:56:31;98932.59;;;11.22;97.94
66627;BME280;53498;50.422;14.912;2023-06-14T03:58:57;98939.50;;;11.30;95.02
66627;BME280;53498;50.422;14.912;2023-06-14T04:01:23;98930.78;;;11.42;96.79
66627;BME280;53498;50.422;14.912;2023-06-14T04:03:55;98937.66;;;11.52;94.81
66627;BME280;53498;50.422;14.912;2023-06-14T04:06:21;98935.06;;;11.54;96.68
66627;BME280;53498;50.422;14.912;2023-06-14T04:08:47;98946.28;;;11.59;94.69
66627;BME280;53498;50.422;14.912;2023-06-14T04:11:15;98936.69;;;11.70;94.17
66627;BME280;53498;50.422;14.912;2023-06-14T04:13:40;98941.88;;;11.73;92.02
66627;BME280;53498;50.422;14.912;2023-06-14T04:16:06;98944.41;;;11.82;91.71
66627;BME280;53498;50.422;14.912;2023-06-14T04:18:32;98944.38;;;11.90;90.78
66627;BME280;53498;50.422;14.912;2023-06-14T04:20:57;98940.03;;;11.92;90.03
66627;BME280;53498;50.422;14.912;2023-06-14T04:23:23;98938.16;;;12.08;90.47
66627;BME280;53498;50.422;14.912;2023-06-14T04:25:49;98942.56;;;12.04;91.29
66627;BME280;53498;50.422;14.912;2023-06-14T04:28:15;98939.00;;;12.13;91.09
66627;BME280;53498;50.422;14.912;2023-06-14T04:30:42;98931.97;;;12.21;89.35
66627;BME280;53498;50.422;14.912;2023-06-14T04:33:07;98938.06;;;12.19;90.44
66627;BME280;53498;50.422;14.912;2023-06-14T04:35:35;98944.94;;;12.32;90.58
66627;BME280;53498;50.422;14.912;2023-06-14T04:38:01;98938.00;;;12.30;90.94
66627;BME280;53498;50.422;14.912;2023-06-14T04:40:30;98944.91;;;12.34;89.61
66627;BME280;53498;50.422;14.912;2023-06-14T04:42:56;98944.78;;;12.46;90.99
66627;BME280;53498;50.422;14.912;2023-06-14T04:45:23;98954.38;;;12.42;87.83
66627;BME280;53498;50.422;14.912;2023-06-14T04:47:49;98948.25;;;12.46;88.83
66627;BME280;53498;50.422;14.912;2023-06-14T04:50:17;98951.75;;;12.44;88.30
66627;BME280;53498;50.422;14.912;2023-06-14T04:52:43;98955.34;;;12.34;88.48
66627;BME280;53498;50.422;14.912;2023-06-14T04:55:09;98959.72;;;12.32;89.56
66627;BME280;53498;50.422;14.912;2023-06-14T04:57:35;98960.56;;;12.35;89.37
66627;BME280;53498;50.422;14.912;2023-06-14T05:00:01;98965.84;;;12.26;90.59
66627;BME280;53498;50.422;14.912;2023-06-14T05:02:29;98969.31;;;12.26;91.13
66627;BME280;53498;50.422;14.912;2023-06-14T05:04:56;98968.41;;;12.32;89.15
66627;BME280;53498;50.422;14.912;2023-06-14T05:07:22;98963.00;;;12.54;91.04
66627;BME280;53498;50.422;14.912;2023-06-14T05:09:53;98967.13;;;12.74;89.63
66627;BME280;53498;50.422;14.912;2023-06-14T05:12:18;98959.94;;;12.95;88.80
66627;BME280;53498;50.422;14.912;2023-06-14T05:14:44;98961.66;;;12.96;87.74
66627;BME280;53498;50.422;14.912;2023-06-14T05:17:10;98961.63;;;12.99;87.63
66627;BME280;53498;50.422;14.912;2023-06-14T05:19:36;98967.72;;;13.00;86.08
66627;BME280;53498;50.422;14.912;2023-06-14T05:22:01;98975.66;;;12.92;86.87
66627;BME280;53498;50.422;14.912;2023-06-14T05:24:28;98980.84;;;12.95;86.71
66627;BME280;53498;50.422;14.912;2023-06-14T05:26:56;98968.31;;;13.22;85.44
66627;BME280;53498;50.422;14.912;2023-06-14T05:29:22;98968.88;;;13.50;86.31
66627;BME280;53498;50.422;14.912;2023-06-14T05:31:47;98975.03;;;13.46;84.31
66627;BME280;53498;50.422;14.912;2023-06-14T05:34:13;98973.16;;;13.55;83.31
66627;BME280;53498;50.422;14.912;2023-06-14T05:36:38;98972.03;;;13.72;83.86
66627;BME280;53498;50.422;14.912;2023-06-14T05:39:04;98971.03;;;13.82;82.87
66627;BME280;53498;50.422;14.912;2023-06-14T05:41:31;98966.59;;;13.88;80.15
66627;BME280;53498;50.422;14.912;2023-06-14T05:43:57;98972.72;;;13.86;79.17
66627;BME280;53498;50.422;14.912;2023-06-14T05:46:23;98968.88;;;14.08;78.95
66627;BME280;53498;50.422;14.912;2023-06-14T05:48:51;98970.03;;;14.45;77.13
66627;BME280;53498;50.422;14.912;2023-06-14T05:51:17;98969.50;;;14.75;76.27
66627;BME280;53498;50.422;14.912;2023-06-14T05:53:48;98975.75;;;15.13;74.30
66627;BME280;53498;50.422;14.912;2023-06-14T05:56:15;98976.19;;;15.37;74.18
66627;BME280;53498;50.422;14.912;2023-06-14T05:58:41;98975.31;;;15.78;71.42
66627;BME280;53498;50.422;14.912;2023-06-14T06:01:07;98973.88;;;16.02;70.63
66627;BME280;53498;50.422;14.912;2023-06-14T06:03:33;98974.53;;;16.10;70.13
66627;BME280;53498;50.422;14.912;2023-06-14T06:05:58;98982.03;;;16.96;69.46
66627;BME280;53498;50.422;14.912;2023-06-14T06:08:26;98989.03;;;17.57;65.00
66627;BME280;53498;50.422;14.912;2023-06-14T06:10:51;98986.41;;;18.42;59.91
66627;BME280;53498;50.422;14.912;2023-06-14T06:13:17;98987.53;;;19.11;55.29
66627;BME280;53498;50.422;14.912;2023-06-14T06:15:42;98986.19;;;19.95;53.23
66627;BME280;53498;50.422;14.912;2023-06-14T06:18:08;98991.19;;;20.45;49.49
66627;BME280;53498;50.422;14.912;2023-06-14T06:20:34;98986.88;;;20.22;50.15
66627;BME280;53498;50.422;14.912;2023-06-14T06:23:00;98979.31;;;19.91;52.01
66627;BME280;53498;50.422;14.912;2023-06-14T06:25:26;98988.03;;;19.93;51.49
66627;BME280;53498;50.422;14.912;2023-06-14T06:27:53;98996.41;;;20.89;47.76
66627;BME280;53498;50.422;14.912;2023-06-14T06:30:20;98995.38;;;20.73;46.21
66627;BME280;53498;50.422;14.912;2023-06-14T06:32:46;98997.59;;;20.40;48.53
66627;BME280;53498;50.422;14.912;2023-06-14T06:35:12;98991.56;;;20.36;49.90
66627;BME280;53498;50.422;14.912;2023-06-14T06:37:39;99001.69;;;19.57;51.52
66627;BME280;53498;50.422;14.912;2023-06-14T06:40:05;98998.03;;;19.38;50.38
66627;BME280;53498;50.422;14.912;2023-06-14T06:42:31;99006.00;;;19.83;49.57
66627;BME280;53498;50.422;14.912;2023-06-14T06:44:57;98994.31;;;19.44;51.52
66627;BME280;53498;50.422;14.912;2023-06-14T06:47:23;98999.75;;;18.90;53.04
66627;BME280;53498;50.422;14.912;2023-06-14T06:49:50;99003.31;;;18.61;52.21
66627;BME280;53498;50.422;14.912;2023-06-14T06:52:16;98997.56;;;18.50;56.06
66627;BME280;53498;50.422;14.912;2023-06-14T06:54:41;99002.19;;;18.43;53.34
66627;BME280;53498;50.422;14.912;2023-06-14T06:57:07;99006.63;;;18.68;53.16
66627;BME280;53498;50.422;14.912;2023-06-14T06:59:33;99009.38;;;18.10;54.38
66627;BME280;53498;50.422;14.912;2023-06-14T07:01:59;99006.50;;;18.46;53.95
66627;BME280;53498;50.422;14.912;2023-06-14T07:04:25;99016.22;;;18.44;53.40
66627;BME280;53498;50.422;14.912;2023-06-14T07:06:51;99015.66;;;18.06;54.14
66627;BME280;53498;50.422;14.912;2023-06-14T07:09:16;99018.22;;;18.36;54.48
66627;BME280;53498;50.422;14.912;2023-06-14T07:11:43;99028.66;;;18.39;52.49
66627;BME280;53498;50.422;14.912;2023-06-14T07:14:09;99029.84;;;18.02;52.52
66627;BME280;53498;50.422;14.912;2023-06-14T07:16:35;99032.28;;;17.78;54.42
66627;BME280;53498;50.422;14.912;2023-06-14T07:19:02;99030.72;;;18.01;55.63
66627;BME280;53498;50.422;14.912;2023-06-14T07:21:28;99030.22;;;18.44;59.44
66627;BME280;53498;50.422;14.912;2023-06-14T07:23:54;99030.88;;;18.51;56.31
66627;BME280;53498;50.422;14.912;2023-06-14T07:26:19;99028.13;;;18.56;55.72
66627;BME280;53498;50.422;14.912;2023-06-14T07:28:46;99022.00;;;18.82;53.04
66627;BME280;53498;50.422;14.912;2023-06-14T07:31:12;99027.09;;;18.60;53.32
66627;BME280;53498;50.422;14.912;2023-06-14T07:33:38;99023.19;;;18.98;54.24
66627;BME280;53498;50.422;14.912;2023-06-14T07:36:04;99030.19;;;18.99;55.09
66627;BME280;53498;50.422;14.912;2023-06-14T07:38:29;99033.63;;;19.01;55.80
66627;BME280;53498;50.422;14.912;2023-06-14T07:40:55;99041.38;;;19.06;52.43
66627;BME280;53498;50.422;14.912;2023-06-14T07:43:21;99030.22;;;19.23;51.72
66627;BME280;53498;50.422;14.912;2023-06-14T07:45:46;99034.25;;;19.33;53.66
66627;BME280;53498;50.422;14.912;2023-06-14T07:48:12;99029.91;;;19.55;51.77
66627;BME280;53498;50.422;14.912;2023-06-14T07:50:38;99029.00;;;19.80;50.76
66627;BME280;53498;50.422;14.912;2023-06-14T07:53:03;99027.44;;;19.98;51.88
66627;BME280;53498;50.422;14.912;2023-06-14T07:55:29;99035.16;;;19.80;50.97
66627;BME280;53498;50.422;14.912;2023-06-14T07:57:54;99037.31;;;19.21;51.59
66627;BME280;53498;50.422;14.912;2023-06-14T08:00:20;99032.00;;;19.22;51.79
66627;BME280;53498;50.422;14.912;2023-06-14T08:02:46;99038.56;;;19.10;49.06
66627;BME280;53498;50.422;14.912;2023-06-14T08:05:12;99040.03;;;19.42;48.44
66627;BME280;53498;50.422;14.912;2023-06-14T08:07:39;99032.84;;;18.99;48.52
66627;BME280;53498;50.422;14.912;2023-06-14T08:10:05;99041.16;;;18.87;46.29
66627;BME280;53498;50.422;14.912;2023-06-14T08:12:32;99042.50;;;19.24;46.35
66627;BME280;53498;50.422;14.912;2023-06-14T08:14:58;99033.47;;;18.81;47.87
66627;BME280;53498;50.422;14.912;2023-06-14T08:17:24;99038.78;;;19.29;48.12
66627;BME280;53498;50.422;14.912;2023-06-14T08:19:50;99041.03;;;19.40;46.61
66627;BME280;53498;50.422;14.912;2023-06-14T08:22:16;99044.66;;;19.12;48.13
66627;BME280;53498;50.422;14.912;2023-06-14T08:24:42;99035.94;;;19.10;48.05
66627;BME280;53498;50.422;14.912;2023-06-14T08:27:07;99029.47;;;19.68;48.90
66627;BME280;53498;50.422;14.912;2023-06-14T08:29:34;99033.00;;;20.14;49.43
66627;BME280;53498;50.422;14.912;2023-06-14T08:32:00;99032.00;;;19.71;45.81
66627;BME280;53498;50.422;14.912;2023-06-14T08:34:25;99033.78;;;19.70;47.34
66627;BME280;53498;50.422;14.912;2023-06-14T08:36:51;99037.72;;;19.10;46.64
66627;BME280;53498;50.422;14.912;2023-06-14T08:39:17;99032.94;;;19.70;47.97
66627;BME280;53498;50.422;14.912;2023-06-14T08:41:46;99027.41;;;19.27;48.36
66627;BME280;53498;50.422;14.912;2023-06-14T08:44:12;99027.09;;;19.60;48.10
66627;BME280;53498;50.422;14.912;2023-06-14T08:46:38;99030.00;;;19.52;47.24
66627;BME280;53498;50.422;14.912;2023-06-14T08:49:04;99030.72;;;20.04;44.88
66627;BME280;53498;50.422;14.912;2023-06-14T08:51:31;99029.38;;;19.46;46.03
66627;BME280;53498;50.422;14.912;2023-06-14T08:54:02;99030.28;;;19.93;45.88
66627;BME280;53498;50.422;14.912;2023-06-14T08:56:30;99024.91;;;20.18;43.26
66627;BME280;53498;50.422;14.912;2023-06-14T08:59:00;99031.75;;;20.00;44.90
66627;BME280;53498;50.422;14.912;2023-06-14T09:01:36;99027.25;;;20.46;43.61
66627;BME280;53498;50.422;14.912;2023-06-14T09:04:03;99027.75;;;20.78;45.47
66627;BME280;53498;50.422;14.912;2023-06-14T09:06:31;99033.13;;;20.54;43.40
66627;BME280;53498;50.422;14.912;2023-06-14T09:08:57;99035.50;;;20.17;45.88
66627;BME280;53498;50.422;14.912;2023-06-14T09:11:23;99031.69;;;20.68;46.58
66627;BME280;53498;50.422;14.912;2023-06-14T09:13:50;99042.09;;;20.28;45.85
66627;BME280;53498;50.422;14.912;2023-06-14T09:16:16;99045.38;;;20.11;47.72
66627;BME280;53498;50.422;14.912;2023-06-14T09:18:44;99046.09;;;20.39;47.51
66627;BME280;53498;50.422;14.912;2023-06-14T09:21:11;99051.69;;;20.31;47.08
66627;BME280;53498;50.422;14.912;2023-06-14T09:23:38;99047.47;;;20.03;47.29
66627;BME280;53498;50.422;14.912;2023-06-14T09:28:40;99051.88;;;19.81;47.47
66627;BME280;53498;50.422;14.912;2023-06-14T09:31:07;99047.16;;;19.66;48.80
66627;BME280;53498;50.422;14.912;2023-06-14T09:33:34;99053.19;;;19.44;47.25
66627;BME280;53498;50.422;14.912;2023-06-14T09:35:59;99044.28;;;19.23;47.72
66627;BME280;53498;50.422;14.912;2023-06-14T09:38:25;99042.13;;;19.34;50.44
66627;BME280;53498;50.422;14.912;2023-06-14T09:40:51;99046.97;;;19.47;48.98
66627;BME280;53498;50.422;14.912;2023-06-14T09:43:17;99047.78;;;19.72;50.24
66627;BME280;53498;50.422;14.912;2023-06-14T09:45:44;99047.81;;;19.47;48.67
66627;BME280;53498;50.422;14.912;2023-06-14T09:48:11;99041.69;;;19.47;50.33
66627;BME280;53498;50.422;14.912;2023-06-14T09:50:37;99047.50;;;19.31;50.84
66627;BME280;53498;50.422;14.912;2023-06-14T09:53:10;99040.00;;;19.44;51.04
66627;BME280;53498;50.422;14.912;2023-06-14T09:55:37;99030.19;;;19.73;50.94
66627;BME280;53498;50.422;14.912;2023-06-14T09:58:07;99039.19;;;19.67;51.02
66627;BME280;53498;50.422;14.912;2023-06-14T10:00:34;99033.84;;;19.69;49.75
66627;BME280;53498;50.422;14.912;2023-06-14T10:03:04;99031.22;;;19.69;50.75
66627;BME280;53498;50.422;14.912;2023-06-14T10:05:32;99028.06;;;19.57;49.48
66627;BME280;53498;50.422;14.912;2023-06-14T10:08:05;99035.66;;;19.43;48.93
66627;BME280;53498;50.422;14.912;2023-06-14T10:10:33;99035.09;;;19.33;51.35
66627;BME280;53498;50.422;14.912;2023-06-14T10:12:59;99035.09;;;19.33;50.06
66627;BME280;53498;50.422;14.912;2023-06-14T10:15:35;99038.63;;;19.34;49.75
66627;BME280;53498;50.422;14.912;2023-06-14T10:18:13;99029.94;;;19.30;49.50
66627;BME280;53498;50.422;14.912;2023-06-14T10:21:08;99038.56;;;19.35;48.77
66627;BME280;53498;50.422;14.912;2023-06-14T10:23:47;99027.16;;;19.35;48.72
66627;BME280;53498;50.422;14.912;2023-06-14T10:26:21;99036.75;;;19.37;48.96
66627;BME280;53498;50.422;14.912;2023-06-14T10:29:01;99033.81;;;19.45;49.02
66627;BME280;53498;50.422;14.912;2023-06-14T10:31:42;99032.31;;;19.61;48.69
66627;BME280;53498;50.422;14.912;2023-06-14T10:34:09;99030.28;;;19.70;48.65
66627;BME280;53498;50.422;14.912;2023-06-14T10:36:34;99025.59;;;19.78;49.39
66627;BME280;53498;50.422;14.912;2023-06-14T10:41:40;99034.88;;;19.16;47.78
66627;BME280;53498;50.422;14.912;2023-06-14T10:46:38;99033.63;;;19.26;47.28
66627;BME280;53498;50.422;14.912;2023-06-14T10:49:04;99025.13;;;18.93;47.13
66627;BME280;53498;50.422;14.912;2023-06-14T10:51:38;99031.63;;;18.83;46.74
66627;BME280;53498;50.422;14.912;2023-06-14T10:54:12;99028.88;;;18.86;47.62
66627;BME280;53498;50.422;14.912;2023-06-14T10:56:48;99030.41;;;18.93;47.71
66627;BME280;53498;50.422;14.912;2023-06-14T10:59:15;99034.38;;;18.52;48.66
66627;BME280;53498;50.422;14.912;2023-06-14T11:01:53;99038.69;;;18.54;48.26
66627;BME280;53498;50.422;14.912;2023-06-14T11:04:34;99041.59;;;18.46;49.36
66627;BME280;53498;50.422;14.912;2023-06-14T11:12:40;99028.06;;;18.57;49.05
66627;BME280;53498;50.422;14.912;2023-06-14T11:15:08;99033.31;;;18.57;47.63
66627;BME280;53498;50.422;14.912;2023-06-14T11:17:33;99023.72;;;18.83;49.32
66627;BME280;53498;50.422;14.912;2023-06-14T11:20:12;99024.31;;;18.91;48.48
66627;BME280;53498;50.422;14.912;2023-06-14T11:22:42;99034.56;;;18.99;47.40
66627;BME280;53498;50.422;14.912;2023-06-14T11:25:09;99032.00;;;18.97;47.40
66627;BME280;53498;50.422;14.912;2023-06-14T11:27:35;99029.47;;;18.67;46.79
66627;BME280;53498;50.422;14.912;2023-06-14T11:30:01;99039.78;;;18.75;47.04
66627;BME280;53498;50.422;14.912;2023-06-14T11:32:27;99033.63;;;19.01;48.18
66627;BME280;53498;50.422;14.912;2023-06-14T11:34:53;99034.00;;;18.90;47.20
66627;BME280;53498;50.422;14.912;2023-06-14T11:37:19;99038.75;;;19.06;44.27
66627;BME280;53498;50.422;14.912;2023-06-14T11:39:45;99032.13;;;19.19;44.10
66627;BME280;53498;50.422;14.912;2023-06-14T11:42:17;99037.09;;;19.27;42.72
66627;BME280;53498;50.422;14.912;2023-06-14T11:44:46;99041.69;;;19.22;44.24
66627;BME280;53498;50.422;14.912;2023-06-14T11:47:12;99036.66;;;19.15;42.93
66627;BME280;53498;50.422;14.912;2023-06-14T11:49:38;99032.25;;;19.14;44.08
66627;BME280;53498;50.422;14.912;2023-06-14T11:52:04;99032.94;;;19.21;42.04
66627;BME280;53498;50.422;14.912;2023-06-14T11:54:32;99032.34;;;19.13;43.08
66627;BME280;53498;50.422;14.912;2023-06-14T11:56:58;99031.91;;;19.00;44.28
66627;BME280;53498;50.422;14.912;2023-06-14T11:59:24;99030.41;;;19.18;44.13
66627;BME280;53498;50.422;14.912;2023-06-14T12:01:50;99032.63;;;19.54;43.53
66627;BME280;53498;50.422;14.912;2023-06-14T12:04:24;99032.38;;;19.11;44.36
66627;BME280;53498;50.422;14.912;2023-06-14T12:06:51;99031.59;;;19.33;44.10
66627;BME280;53498;50.422;14.912;2023-06-14T12:09:19;99027.53;;;19.73;44.11
66627;BME280;53498;50.422;14.912;2023-06-14T12:11:45;99028.78;;;19.86;42.08
66627;BME280;53498;50.422;14.912;2023-06-14T12:14:11;99022.75;;;19.82;43.70
66627;BME280;53498;50.422;14.912;2023-06-14T12:16:40;99025.28;;;19.85;42.86
66627;BME280;53498;50.422;14.912;2023-06-14T12:19:16;99019.34;;;20.24;43.83
66627;BME280;53498;50.422;14.912;2023-06-14T12:21:43;99022.31;;;20.17;42.75
66627;BME280;53498;50.422;14.912;2023-06-14T12:24:12;99019.19;;;19.83;43.20
66627;BME280;53498;50.422;14.912;2023-06-14T12:26:41;99023.56;;;19.84;44.79
66627;BME280;53498;50.422;14.912;2023-06-14T12:29:07;99029.75;;;19.83;43.57
66627;BME280;53498;50.422;14.912;2023-06-14T12:31:33;99022.03;;;19.79;43.56
66627;BME280;53498;50.422;14.912;2023-06-14T12:33:59;99025.28;;;19.85;44.50
66627;BME280;53498;50.422;14.912;2023-06-14T12:36:28;99028.06;;;20.04;44.19
66627;BME280;53498;50.422;14.912;2023-06-14T12:38:54;99026.94;;;19.88;44.63
66627;BME280;53498;50.422;14.912;2023-06-14T12:41:20;99018.03;;;19.69;46.63
66627;BME280;53498;50.422;14.912;2023-06-14T12:43:50;99012.97;;;19.61;46.31
66627;BME280;53498;50.422;14.912;2023-06-14T12:46:15;99010.41;;;20.06;45.64
66627;BME280;53498;50.422;14.912;2023-06-14T12:48:41;99012.59;;;20.39;44.94
66627;BME280;53498;50.422;14.912;2023-06-14T12:51:06;99001.97;;;20.63;43.91
66627;BME280;53498;50.422;14.912;2023-06-14T12:53:32;98996.47;;;20.67;44.88
66627;BME280;53498;50.422;14.912;2023-06-14T12:55:57;98998.63;;;20.15;42.91
66627;BME280;53498;50.422;14.912;2023-06-14T12:58:23;99002.16;;;19.92;42.20
66627;BME280;53498;50.422;14.912;2023-06-14T13:00:49;99008.28;;;19.93;41.64
66627;BME280;53498;50.422;14.912;2023-06-14T13:03:15;99004.72;;;19.72;39.53